sensor_id;sensor_type;location;lat;lon;timestamp;temperature;humidity
72277;SHT30;61204;49.980;8.358;2023-04-03T00:00:06;4.09;75.25
72277;SHT30;61204;49.980;8.358;2023-04-03T00:02:32;4.11;74.95
72277;SHT30;61204;49.980;8.358;2023-04-03T00:04:58;4.07;75.62
72277;SHT30;61204;49.980;8.358;2023-04-03T00:07:23;4.10;75.62
72277;SHT30;61204;49.980;8.358;2023-04-03T00:09:49;4.10;75.02
72277;SHT30;61204;49.980;8.358;2023-04-03T00:12:15;4.10;75.58
72277;SHT30;61204;49.980;8.358;2023-04-03T00:14:40;4.10;75.52
72277;SHT30;61204;49.980;8.358;2023-04-03T00:17:06;4.11;75.47
72277;SHT30;61204;49.980;8.358;2023-04-03T00:19:32;4.11;75.30
72277;SHT30;61204;49.980;8.358;2023-04-03T00:22:00;4.14;75.09
72277;SHT30;61204;49.980;8.358;2023-04-03T00:24:25;4.14;75.13
72277;SHT30;61204;49.980;8.358;2023-04-03T00:26:51;4.11;75.54
72277;SHT30;61204;49.980;8.358;2023-04-03T00:29:18;4.11;75.45
72277;SHT30;61204;49.980;8.358;2023-04-03T00:31:44;4.14;75.30
72277;SHT30;61204;49.980;8.358;2023-04-03T00:34:10;4.17;75.51
72277;SHT30;61204;49.980;8.358;2023-04-03T00:36:35;4.16;75.60
72277;SHT30;61204;49.980;8.358;2023-04-03T00:39:01;4.17;75.42
72277;SHT30;61204;49.980;8.358;2023-04-03T00:41:26;4.18;75.51
72277;SHT30;61204;49.980;8.358;2023-04-03T00:43:52;4.21;75.05
72277;SHT30;61204;49.980;8.358;2023-04-03T00:46:17;4.25;74.76
72277;SHT30;61204;49.980;8.358;2023-04-03T00:48:48;4.23;74.89
72277;SHT30;61204;49.980;8.358;2023-04-03T00:51:20;4.25;74.35
72277;SHT30;61204;49.980;8.358;2023-04-03T00:53:49;4.33;73.69
72277;SHT30;61204;49.980;8.358;2023-04-03T00:56:21;4.42;73.80
72277;SHT30;61204;49.980;8.358;2023-04-03T00:58:55;4.38;74.26
72277;SHT30;61204;49.980;8.358;2023-04-03T01:01:28;4.38;74.63
72277;SHT30;61204;49.980;8.358;2023-04-03T01:03:59;4.33;75.11
72277;SHT30;61204;49.980;8.358;2023-04-03T01:06:30;4.37;74.45
72277;SHT30;61204;49.980;8.358;2023-04-03T01:08:59;4.48;73.53
72277;SHT30;61204;49.980;8.358;2023-04-03T01:11:33;4.47;74.25
72277;SHT30;61204;49.980;8.358;2023-04-03T01:13:58;4.47;73.27
72277;SHT30;61204;49.980;8.358;2023-04-03T01:16:24;4.58;72.52
72277;SHT30;61204;49.980;8.358;2023-04-03T01:18:49;4.61;72.48
72277;SHT30;61204;49.980;8.358;2023-04-03T01:27:03;4.64;72.20
72277;SHT30;61204;49.980;8.358;2023-04-03T01:29:34;4.65;72.38
72277;SHT30;61204;49.980;8.358;2023-04-03T01:32:01;4.59;72.22
72277;SHT30;61204;49.980;8.358;2023-04-03T01:34:28;4.65;71.67
72277;SHT30;61204;49.980;8.358;2023-04-03T01:36:54;4.67;71.91
72277;SHT30;61204;49.980;8.358;2023-04-03T01:39:21;4.72;71.87
72277;SHT30;61204;49.980;8.358;2023-04-03T01:41:47;4.67;71.92
72277;SHT30;61204;49.980;8.358;2023-04-03T01:44:13;4.67;71.64
72277;SHT30;61204;49.980;8.358;2023-04-03T01:46:39;4.69;71.58
72277;SHT30;61204;49.980;8.358;2023-04-03T01:49:05;4.71;72.00
72277;SHT30;61204;49.980;8.358;2023-04-03T01:51:30;4.65;72.51
72277;SHT30;61204;49.980;8.358;2023-04-03T01:53:56;4.67;72.37
72277;SHT30;61204;49.980;8.358;2023-04-03T01:56:22;4.65;72.58
72277;SHT30;61204;49.980;8.358;2023-04-03T01:58:47;4.62;72.90
72277;SHT30;61204;49.980;8.358;2023-04-03T02:01:13;4.67;72.81
72277;SHT30;61204;49.980;8.358;2023-04-03T02:03:38;4.64;72.51
72277;SHT30;61204;49.980;8.358;2023-04-03T02:06:04;4.68;72.73
72277;SHT30;61204;49.980;8.358;2023-04-03T02:08:30;4.64;72.79
72277;SHT30;61204;49.980;8.358;2023-04-03T02:10:55;4.69;72.41
72277;SHT30;61204;49.980;8.358;2023-04-03T02:13:21;4.73;72.43
72277;SHT30;61204;49.980;8.358;2023-04-03T02:15:46;4.73;72.41
72277;SHT30;61204;49.980;8.358;2023-04-03T02:18:13;4.71;72.25
72277;SHT30;61204;49.980;8.358;2023-04-03T02:20:39;4.71;72.49
72277;SHT30;61204;49.980;8.358;2023-04-03T02:23:04;4.69;72.80
72277;SHT30;61204;49.980;8.358;2023-04-03T02:25:32;4.73;72.78
72277;SHT30;61204;49.980;8.358;2023-04-03T02:27:58;4.73;72.86
72277;SHT30;61204;49.980;8.358;2023-04-03T02:30:24;4.71;73.29
72277;SHT30;61204;49.980;8.358;2023-04-03T02:32:52;4.68;73.44
72277;SHT30;61204;49.980;8.358;2023-04-03T02:35:17;4.71;73.41
72277;SHT30;61204;49.980;8.358;2023-04-03T02:37:43;4.69;73.57
72277;SHT30;61204;49.980;8.358;2023-04-03T02:40:09;4.73;73.54
72277;SHT30;61204;49.980;8.358;2023-04-03T02:42:36;4.73;73.73
72277;SHT30;61204;49.980;8.358;2023-04-03T02:45:02;4.75;73.84
72277;SHT30;61204;49.980;8.358;2023-04-03T02:47:31;4.72;74.23
72277;SHT30;61204;49.980;8.358;2023-04-03T02:49:56;4.79;73.65
72277;SHT30;61204;49.980;8.358;2023-04-03T02:52:24;4.73;73.87
72277;SHT30;61204;49.980;8.358;2023-04-03T02:54:50;4.82;73.42
72277;SHT30;61204;49.980;8.358;2023-04-03T02:57:15;4.80;73.76
72277;SHT30;61204;49.980;8.358;2023-04-03T02:59:41;4.80;73.65
72277;SHT30;61204;49.980;8.358;2023-04-03T03:02:07;4.79;73.61
72277;SHT30;61204;49.980;8.358;2023-04-03T03:04:34;4.76;73.80
72277;SHT30;61204;49.980;8.358;2023-04-03T03:07:00;4.76;74.15
72277;SHT30;61204;49.980;8.358;2023-04-03T03:09:28;4.75;74.09
72277;SHT30;61204;49.980;8.358;2023-04-03T03:11:55;4.71;74.29
72277;SHT30;61204;49.980;8.358;2023-04-03T03:14:23;4.75;74.29
72277;SHT30;61204;49.980;8.358;2023-04-03T03:16:49;4.68;74.44
72277;SHT30;61204;49.980;8.358;2023-04-03T03:19:15;4.68;74.64
72277;SHT30;61204;49.980;8.358;2023-04-03T03:21:41;4.65;74.90
72277;SHT30;61204;49.980;8.358;2023-04-03T03:24:09;4.65;74.91
72277;SHT30;61204;49.980;8.358;2023-04-03T03:26:34;4.64;74.80
72277;SHT30;61204;49.980;8.358;2023-04-03T03:29:02;4.65;74.64
72277;SHT30;61204;49.980;8.358;2023-04-03T03:31:28;4.67;74.43
72277;SHT30;61204;49.980;8.358;2023-04-03T03:33:53;4.61;75.04
72277;SHT30;61204;49.980;8.358;2023-04-03T03:36:21;4.55;75.16
72277;SHT30;61204;49.980;8.358;2023-04-03T03:38:48;4.55;75.15
72277;SHT30;61204;49.980;8.358;2023-04-03T03:41:14;4.58;74.62
72277;SHT30;61204;49.980;8.358;2023-04-03T03:43:39;4.55;75.27
72277;SHT30;61204;49.980;8.358;2023-04-03T03:46:05;4.52;74.98
72277;SHT30;61204;49.980;8.358;2023-04-03T03:48:33;4.51;75.22
72277;SHT30;61204;49.980;8.358;2023-04-03T03:51:01;4.41;76.06
72277;SHT30;61204;49.980;8.358;2023-04-03T03:53:26;4.33;76.73
72277;SHT30;61204;49.980;8.358;2023-04-03T03:55:52;4.31;76.85
72277;SHT30;61204;49.980;8.358;2023-04-03T03:58:17;4.24;77.14
72277;SHT30;61204;49.980;8.358;2023-04-03T04:00:45;4.17;77.02
72277;SHT30;61204;49.980;8.358;2023-04-03T04:03:10;4.13;75.91
72277;SHT30;61204;49.980;8.358;2023-04-03T04:05:36;4.06;75.48
72277;SHT30;61204;49.980;8.358;2023-04-03T04:08:01;4.00;74.56
72277;SHT30;61204;49.980;8.358;2023-04-03T04:10:27;3.97;73.98
72277;SHT30;61204;49.980;8.358;2023-04-03T04:12:52;3.90;73.77
72277;SHT30;61204;49.980;8.358;2023-04-03T04:15:18;3.87;73.49
72277;SHT30;61204;49.980;8.358;2023-04-03T04:17:43;3.89;72.94
72277;SHT30;61204;49.980;8.358;2023-04-03T04:20:09;3.86;72.84
72277;SHT30;61204;49.980;8.358;2023-04-03T04:22:36;3.86;72.53
72277;SHT30;61204;49.980;8.358;2023-04-03T04:25:01;3.85;72.09
72277;SHT30;61204;49.980;8.358;2023-04-03T04:27:27;3.85;71.93
72277;SHT30;61204;49.980;8.358;2023-04-03T04:29:55;3.78;72.16
72277;SHT30;61204;49.980;8.358;2023-04-03T04:32:20;3.74;72.28
72277;SHT30;61204;49.980;8.358;2023-04-03T04:34:45;3.71;72.25
72277;SHT30;61204;49.980;8.358;2023-04-03T04:37:11;3.68;72.45
72277;SHT30;61204;49.980;8.358;2023-04-03T04:39:36;3.67;72.65
72277;SHT30;61204;49.980;8.358;2023-04-03T04:42:02;3.67;72.91
72277;SHT30;61204;49.980;8.358;2023-04-03T04:44:28;3.58;73.20
72277;SHT30;61204;49.980;8.358;2023-04-03T04:46:55;3.55;73.55
72277;SHT30;61204;49.980;8.358;2023-04-03T04:49:21;3.47;73.96
72277;SHT30;61204;49.980;8.358;2023-04-03T04:51:46;3.47;73.89
72277;SHT30;61204;49.980;8.358;2023-04-03T04:54:12;3.42;73.99
72277;SHT30;61204;49.980;8.358;2023-04-03T04:56:37;3.34;74.03
72277;SHT30;61204;49.980;8.358;2023-04-03T04:59:02;3.35;74.06
72277;SHT30;61204;49.980;8.358;2023-04-03T05:01:28;3.30;74.23
72277;SHT30;61204;49.980;8.358;2023-04-03T05:03:56;3.22;74.06
72277;SHT30;61204;49.980;8.358;2023-04-03T05:06:22;3.14;73.86
72277;SHT30;61204;49.980;8.358;2023-04-03T05:08:50;3.14;74.33
72277;SHT30;61204;49.980;8.358;2023-04-03T05:11:15;3.13;74.59
72277;SHT30;61204;49.980;8.358;2023-04-03T05:13:43;3.10;74.60
72277;SHT30;61204;49.980;8.358;2023-04-03T05:16:11;3.09;74.48
72277;SHT30;61204;49.980;8.358;2023-04-03T05:18:36;3.05;74.48
72277;SHT30;61204;49.980;8.358;2023-04-03T05:21:01;3.03;74.66
72277;SHT30;61204;49.980;8.358;2023-04-03T05:23:27;3.02;75.19
72277;SHT30;61204;49.980;8.358;2023-04-03T05:25:53;3.02;75.01
72277;SHT30;61204;49.980;8.358;2023-04-03T05:28:18;3.03;74.98
72277;SHT30;61204;49.980;8.358;2023-04-03T05:30:53;2.95;75.19
72277;SHT30;61204;49.980;8.358;2023-04-03T05:33:22;2.95;75.09
72277;SHT30;61204;49.980;8.358;2023-04-03T05:35:48;2.95;75.08
72277;SHT30;61204;49.980;8.358;2023-04-03T05:38:16;2.96;75.15
72277;SHT30;61204;49.980;8.358;2023-04-03T05:40:41;2.99;75.33
72277;SHT30;61204;49.980;8.358;2023-04-03T05:43:11;2.99;75.29
72277;SHT30;61204;49.980;8.358;2023-04-03T05:45:37;3.05;74.92
72277;SHT30;61204;49.980;8.358;2023-04-03T05:48:02;3.07;74.82
72277;SHT30;61204;49.980;8.358;2023-04-03T05:50:28;3.12;74.67
72277;SHT30;61204;49.980;8.358;2023-04-03T05:52:57;3.10;74.54
72277;SHT30;61204;49.980;8.358;2023-04-03T05:55:26;3.17;74.94
72277;SHT30;61204;49.980;8.358;2023-04-03T05:57:51;3.16;74.77
72277;SHT30;61204;49.980;8.358;2023-04-03T06:00:17;3.22;74.78
72277;SHT30;61204;49.980;8.358;2023-04-03T06:02:43;3.23;74.59
72277;SHT30;61204;49.980;8.358;2023-04-03T06:05:09;3.28;74.32
72277;SHT30;61204;49.980;8.358;2023-04-03T06:07:36;3.34;73.89
72277;SHT30;61204;49.980;8.358;2023-04-03T06:10:03;3.40;74.19
72277;SHT30;61204;49.980;8.358;2023-04-03T06:12:29;3.51;73.38
72277;SHT30;61204;49.980;8.358;2023-04-03T06:14:55;3.50;73.56
72277;SHT30;61204;49.980;8.358;2023-04-03T06:17:20;3.51;73.24
72277;SHT30;61204;49.980;8.358;2023-04-03T06:19:46;3.62;73.08
72277;SHT30;61204;49.980;8.358;2023-04-03T06:22:12;3.89;72.25
72277;SHT30;61204;49.980;8.358;2023-04-03T06:24:38;4.23;71.36
72277;SHT30;61204;49.980;8.358;2023-04-03T06:27:04;4.71;69.58
72277;SHT30;61204;49.980;8.358;2023-04-03T06:29:32;5.07;68.00
72277;SHT30;61204;49.980;8.358;2023-04-03T06:31:58;4.96;68.03
72277;SHT30;61204;49.980;8.358;2023-04-03T06:34:23;5.28;67.47
72277;SHT30;61204;49.980;8.358;2023-04-03T06:36:49;5.16;67.80
72277;SHT30;61204;49.980;8.358;2023-04-03T06:39:17;5.09;67.97
72277;SHT30;61204;49.980;8.358;2023-04-03T06:41:50;5.62;67.02
72277;SHT30;61204;49.980;8.358;2023-04-03T06:44:16;5.75;65.92
72277;SHT30;61204;49.980;8.358;2023-04-03T06:46:43;6.07;65.16
72277;SHT30;61204;49.980;8.358;2023-04-03T06:49:09;5.62;65.89
72277;SHT30;61204;49.980;8.358;2023-04-03T06:51:35;5.85;65.01
72277;SHT30;61204;49.980;8.358;2023-04-03T06:54:03;5.89;65.22
72277;SHT30;61204;49.980;8.358;2023-04-03T06:56:30;6.02;64.88
72277;SHT30;61204;49.980;8.358;2023-04-03T06:58:57;6.27;63.58
72277;SHT30;61204;49.980;8.358;2023-04-03T07:01:23;6.25;63.71
72277;SHT30;61204;49.980;8.358;2023-04-03T07:03:53;6.23;63.77
72277;SHT30;61204;49.980;8.358;2023-04-03T07:06:19;6.66;63.03
72277;SHT30;61204;49.980;8.358;2023-04-03T07:08:45;6.58;61.95
72277;SHT30;61204;49.980;8.358;2023-04-03T07:11:12;6.58;61.66
72277;SHT30;61204;49.980;8.358;2023-04-03T07:13:38;6.85;61.03
72277;SHT30;61204;49.980;8.358;2023-04-03T07:16:04;7.01;60.33
72277;SHT30;61204;49.980;8.358;2023-04-03T07:18:31;6.92;60.60
72277;SHT30;61204;49.980;8.358;2023-04-03T07:20:58;7.04;60.22
72277;SHT30;61204;49.980;8.358;2023-04-03T07:23:24;7.21;59.50
72277;SHT30;61204;49.980;8.358;2023-04-03T07:25:50;7.13;58.94
72277;SHT30;61204;49.980;8.358;2023-04-03T07:28:18;7.00;58.95
72277;SHT30;61204;49.980;8.358;2023-04-03T07:30:47;7.40;59.58
72277;SHT30;61204;49.980;8.358;2023-04-03T07:33:18;7.62;58.73
72277;SHT30;61204;49.980;8.358;2023-04-03T07:35:45;7.55;57.61
72277;SHT30;61204;49.980;8.358;2023-04-03T07:38:11;7.52;59.10
72277;SHT30;61204;49.980;8.358;2023-04-03T07:40:38;7.73;57.60
72277;SHT30;61204;49.980;8.358;2023-04-03T07:43:04;7.93;57.89
72277;SHT30;61204;49.980;8.358;2023-04-03T07:45:31;7.93;56.85
72277;SHT30;61204;49.980;8.358;2023-04-03T07:47:59;7.55;58.20
72277;SHT30;61204;49.980;8.358;2023-04-03T07:50:25;8.24;56.85
72277;SHT30;61204;49.980;8.358;2023-04-03T07:52:52;8.37;57.07
72277;SHT30;61204;49.980;8.358;2023-04-03T07:55:19;8.48;56.45
72277;SHT30;61204;49.980;8.358;2023-04-03T07:57:45;8.28;58.21
72277;SHT30;61204;49.980;8.358;2023-04-03T08:00:12;8.86;55.49
72277;SHT30;61204;49.980;8.358;2023-04-03T08:02:38;8.87;54.93
72277;SHT30;61204;49.980;8.358;2023-04-03T08:05:04;9.59;54.17
72277;SHT30;61204;49.980;8.358;2023-04-03T08:07:30;8.68;55.08
72277;SHT30;61204;49.980;8.358;2023-04-03T08:09:55;9.05;54.80
72277;SHT30;61204;49.980;8.358;2023-04-03T08:12:21;8.17;56.35
72277;SHT30;61204;49.980;8.358;2023-04-03T08:14:46;8.42;56.40
72277;SHT30;61204;49.980;8.358;2023-04-03T08:17:12;9.31;54.36
72277;SHT30;61204;49.980;8.358;2023-04-03T08:19:38;9.79;52.80
72277;SHT30;61204;49.980;8.358;2023-04-03T08:22:05;9.34;53.02
72277;SHT30;61204;49.980;8.358;2023-04-03T08:24:32;8.58;55.18
72277;SHT30;61204;49.980;8.358;2023-04-03T08:26:59;8.73;54.69
72277;SHT30;61204;49.980;8.358;2023-04-03T08:29:24;8.86;55.36
72277;SHT30;61204;49.980;8.358;2023-04-03T08:31:50;9.43;53.73
72277;SHT30;61204;49.980;8.358;2023-04-03T08:34:17;10.20;51.96
72277;SHT30;61204;49.980;8.358;2023-04-03T08:36:45;9.93;51.76
72277;SHT30;61204;49.980;8.358;2023-04-03T08:39:11;9.17;51.59
72277;SHT30;61204;49.980;8.358;2023-04-03T08:41:39;10.00;51.56
72277;SHT30;61204;49.980;8.358;2023-04-03T08:49:43;10.42;49.76
72277;SHT30;61204;49.980;8.358;2023-04-03T08:52:18;10.96;47.74
72277;SHT30;61204;49.980;8.358;2023-04-03T08:54:53;10.63;47.67
72277;SHT30;61204;49.980;8.358;2023-04-03T08:57:37;10.18;49.23
72277;SHT30;61204;49.980;8.358;2023-04-03T09:00:18;10.84;47.55
72277;SHT30;61204;49.980;8.358;2023-04-03T09:02:48;10.76;47.30
72277;SHT30;61204;49.980;8.358;2023-04-03T09:05:43;10.99;48.10
72277;SHT30;61204;49.980;8.358;2023-04-03T09:08:28;11.15;45.13
72277;SHT30;61204;49.980;8.358;2023-04-03T09:11:31;11.51;45.49
72277;SHT30;61204;49.980;8.358;2023-04-03T09:23:30;10.52;45.58
72277;SHT30;61204;49.980;8.358;2023-04-03T09:26:13;9.93;48.55
72277;SHT30;61204;49.980;8.358;2023-04-03T09:28:42;9.94;48.68
72277;SHT30;61204;49.980;8.358;2023-04-03T09:31:23;11.24;47.17
72277;SHT30;61204;49.980;8.358;2023-04-03T09:33:53;11.15;44.66
72277;SHT30;61204;49.980;8.358;2023-04-03T09:36:48;10.72;45.20
72277;SHT30;61204;49.980;8.358;2023-04-03T09:39:31;9.50;47.28
72277;SHT30;61204;49.980;8.358;2023-04-03T09:42:22;8.70;50.82
72277;SHT30;61204;49.980;8.358;2023-04-03T09:44:56;9.04;49.84
72277;SHT30;61204;49.980;8.358;2023-04-03T09:47:28;9.05;48.61
72277;SHT30;61204;49.980;8.358;2023-04-03T09:50:21;9.85;48.14
72277;SHT30;61204;49.980;8.358;2023-04-03T09:52:50;10.17;47.82
72277;SHT30;61204;49.980;8.358;2023-04-03T09:58:02;9.87;48.37
72277;SHT30;61204;49.980;8.358;2023-04-03T10:00:37;9.25;47.39
72277;SHT30;61204;49.980;8.358;2023-04-03T10:03:23;9.39;49.76
72277;SHT30;61204;49.980;8.358;2023-04-03T10:05:55;9.46;49.92
72277;SHT30;61204;49.980;8.358;2023-04-03T10:08:29;9.70;50.04
72277;SHT30;61204;49.980;8.358;2023-04-03T10:11:16;9.91;48.65
72277;SHT30;61204;49.980;8.358;2023-04-03T10:13:57;9.59;49.19
72277;SHT30;61204;49.980;8.358;2023-04-03T10:16:48;8.72;50.27
72277;SHT30;61204;49.980;8.358;2023-04-03T10:22:03;8.88;49.02
72277;SHT30;61204;49.980;8.358;2023-04-03T10:28:30;10.46;46.62
72277;SHT30;61204;49.980;8.358;2023-04-03T10:42:46;9.63;48.69
72277;SHT30;61204;49.980;8.358;2023-04-03T10:45:31;9.52;49.09
72277;SHT30;61204;49.980;8.358;2023-04-03T10:51:01;9.17;50.30
72277;SHT30;61204;49.980;8.358;2023-04-03T10:56:57;9.50;49.96
72277;SHT30;61204;49.980;8.358;2023-04-03T10:59:33;9.49;48.40
72277;SHT30;61204;49.980;8.358;2023-04-03T11:02:36;8.91;48.06
72277;SHT30;61204;49.980;8.358;2023-04-03T11:08:07;9.91;47.19
72277;SHT30;61204;49.980;8.358;2023-04-03T11:10:42;11.13;46.96
72277;SHT30;61204;49.980;8.358;2023-04-03T11:15:58;11.86;43.43
72277;SHT30;61204;49.980;8.358;2023-04-03T11:18:38;11.18;43.60
72277;SHT30;61204;49.980;8.358;2023-04-03T11:21:17;11.82;42.45
72277;SHT30;61204;49.980;8.358;2023-04-03T11:23:47;11.27;43.67
72277;SHT30;61204;49.980;8.358;2023-04-03T11:26:16;11.75;42.66
72277;SHT30;61204;49.980;8.358;2023-04-03T11:28:44;10.99;43.68
72277;SHT30;61204;49.980;8.358;2023-04-03T11:42:42;12.80;37.32
72277;SHT30;61204;49.980;8.358;2023-04-03T11:45:24;12.04;40.94
72277;SHT30;61204;49.980;8.358;2023-04-03T11:48:04;10.79;42.60
72277;SHT30;61204;49.980;8.358;2023-04-03T12:13:35;12.87;36.81
72277;SHT30;61204;49.980;8.358;2023-04-03T12:16:02;13.11;36.99
72277;SHT30;61204;49.980;8.358;2023-04-03T12:35:38;12.66;34.69
72277;SHT30;61204;49.980;8.358;2023-04-03T12:38:30;12.99;35.41
72277;SHT30;61204;49.980;8.358;2023-04-03T12:41:35;13.00;34.56
72277;SHT30;61204;49.980;8.358;2023-04-03T12:44:40;13.18;35.11
72277;SHT30;61204;49.980;8.358;2023-04-03T12:47:35;14.04;33.49
72277;SHT30;61204;49.980;8.358;2023-04-03T12:50:04;13.37;34.30
72277;SHT30;61204;49.980;8.358;2023-04-03T12:52:49;12.89;34.27
72277;SHT30;61204;49.980;8.358;2023-04-03T12:55:21;14.38;32.84
72277;SHT30;61204;49.980;8.358;2023-04-03T12:57:46;14.11;33.26
72277;SHT30;61204;49.980;8.358;2023-04-03T13:02:54;15.17;30.93
72277;SHT30;61204;49.980;8.358;2023-04-03T13:05:21;15.11;31.96
72277;SHT30;61204;49.980;8.358;2023-04-03T13:07:59;14.24;31.99
72277;SHT30;61204;49.980;8.358;2023-04-03T13:10:27;14.31;33.18
72277;SHT30;61204;49.980;8.358;2023-04-03T13:12:57;15.82;30.90
72277;SHT30;61204;49.980;8.358;2023-04-03T13:15:45;15.01;31.96
72277;SHT30;61204;49.980;8.358;2023-04-03T13:20:52;14.32;33.26
72277;SHT30;61204;49.980;8.358;2023-04-03T13:23:19;14.48;32.71
72277;SHT30;61204;49.980;8.358;2023-04-03T13:25:47;15.21;31.22
72277;SHT30;61204;49.980;8.358;2023-04-03T13:28:18;15.58;30.80
72277;SHT30;61204;49.980;8.358;2023-04-03T13:33:56;14.72;31.58
72277;SHT30;61204;49.980;8.358;2023-04-03T13:41:45;14.62;32.25
72277;SHT30;61204;49.980;8.358;2023-04-03T13:49:42;14.82;31.41
72277;SHT30;61204;49.980;8.358;2023-04-03T13:52:26;15.35;31.43
72277;SHT30;61204;49.980;8.358;2023-04-03T13:55:03;15.04;31.67
72277;SHT30;61204;49.980;8.358;2023-04-03T13:57:52;14.61;32.20
72277;SHT30;61204;49.980;8.358;2023-04-03T14:00:26;13.59;33.62
72277;SHT30;61204;49.980;8.358;2023-04-03T14:02:55;14.62;32.27
72277;SHT30;61204;49.980;8.358;2023-04-03T14:05:23;14.89;31.24
72277;SHT30;61204;49.980;8.358;2023-04-03T14:07:51;14.75;31.48
72277;SHT30;61204;49.980;8.358;2023-04-03T14:10:17;14.18;32.10
72277;SHT30;61204;49.980;8.358;2023-04-03T14:12:43;12.46;34.53
72277;SHT30;61204;49.980;8.358;2023-04-03T14:15:19;12.97;33.62
72277;SHT30;61204;49.980;8.358;2023-04-03T14:17:49;12.70;35.10
72277;SHT30;61204;49.980;8.358;2023-04-03T14:20:22;13.52;34.19
72277;SHT30;61204;49.980;8.358;2023-04-03T14:22:50;13.93;32.89
72277;SHT30;61204;49.980;8.358;2023-04-03T14:25:18;14.13;32.81
72277;SHT30;61204;49.980;8.358;2023-04-03T14:27:47;14.28;32.41
72277;SHT30;61204;49.980;8.358;2023-04-03T14:30:22;13.99;32.40
72277;SHT30;61204;49.980;8.358;2023-04-03T14:32:51;13.61;32.57
72277;SHT30;61204;49.980;8.358;2023-04-03T14:35:18;12.28;34.42
72277;SHT30;61204;49.980;8.358;2023-04-03T14:37:45;12.53;34.47
72277;SHT30;61204;49.980;8.358;2023-04-03T14:40:14;12.08;35.12
72277;SHT30;61204;49.980;8.358;2023-04-03T14:42:42;11.82;36.14
72277;SHT30;61204;49.980;8.358;2023-04-03T14:45:11;13.03;34.85
72277;SHT30;61204;49.980;8.358;2023-04-03T14:47:44;13.44;34.59
72277;SHT30;61204;49.980;8.358;2023-04-03T14:50:18;13.38;33.71
72277;SHT30;61204;49.980;8.358;2023-04-03T14:52:49;13.79;32.91
72277;SHT30;61204;49.980;8.358;2023-04-03T14:55:18;12.96;33.27
72277;SHT30;61204;49.980;8.358;2023-04-03T14:57:45;13.44;33.54
72277;SHT30;61204;49.980;8.358;2023-04-03T15:00:19;12.49;33.94
72277;SHT30;61204;49.980;8.358;2023-04-03T15:02:46;12.55;34.64
72277;SHT30;61204;49.980;8.358;2023-04-03T15:05:13;12.80;34.05
72277;SHT30;61204;49.980;8.358;2023-04-03T15:07:42;11.82;34.99
72277;SHT30;61204;49.980;8.358;2023-04-03T15:12:43;12.13;34.56
72277;SHT30;61204;49.980;8.358;2023-04-03T15:15:10;11.84;36.33
72277;SHT30;61204;49.980;8.358;2023-04-03T15:17:36;11.59;36.40
72277;SHT30;61204;49.980;8.358;2023-04-03T15:20:31;12.39;35.30
72277;SHT30;61204;49.980;8.358;2023-04-03T15:22:59;12.59;34.98
72277;SHT30;61204;49.980;8.358;2023-04-03T15:25:29;12.83;33.95
72277;SHT30;61204;49.980;8.358;2023-04-03T15:27:57;12.28;34.50
72277;SHT30;61204;49.980;8.358;2023-04-03T15:30:22;11.95;34.70
72277;SHT30;61204;49.980;8.358;2023-04-03T15:32:49;11.39;34.97
72277;SHT30;61204;49.980;8.358;2023-04-03T15:35:15;10.35;36.54
72277;SHT30;61204;49.980;8.358;2023-04-03T15:37:41;10.87;36.69
72277;SHT30;61204;49.980;8.358;2023-04-03T15:40:07;11.00;37.00
72277;SHT30;61204;49.980;8.358;2023-04-03T15:42:33;10.86;37.74
72277;SHT30;61204;49.980;8.358;2023-04-03T15:44:59;10.45;38.49
72277;SHT30;61204;49.980;8.358;2023-04-03T15:47:25;10.41;38.92
72277;SHT30;61204;49.980;8.358;2023-04-03T15:49:53;10.44;37.79
72277;SHT30;61204;49.980;8.358;2023-04-03T15:52:20;10.34;37.36
72277;SHT30;61204;49.980;8.358;2023-04-03T15:54:45;9.60;38.63
72277;SHT30;61204;49.980;8.358;2023-04-03T15:57:11;10.01;38.42
72277;SHT30;61204;49.980;8.358;2023-04-03T15:59:36;9.94;38.35
72277;SHT30;61204;49.980;8.358;2023-04-03T16:02:03;10.21;37.75
72277;SHT30;61204;49.980;8.358;2023-04-03T16:04:32;9.72;37.91
72277;SHT30;61204;49.980;8.358;2023-04-03T16:07:01;9.75;38.36
72277;SHT30;61204;49.980;8.358;2023-04-03T16:09:29;9.55;39.36
72277;SHT30;61204;49.980;8.358;2023-04-03T16:11:55;9.49;38.94
72277;SHT30;61204;49.980;8.358;2023-04-03T16:14:21;9.56;38.64
72277;SHT30;61204;49.980;8.358;2023-04-03T16:16:46;9.38;38.91
72277;SHT30;61204;49.980;8.358;2023-04-03T16:19:12;9.35;40.07
72277;SHT30;61204;49.980;8.358;2023-04-03T16:21:38;9.18;40.25
72277;SHT30;61204;49.980;8.358;2023-04-03T16:24:04;9.28;40.29
72277;SHT30;61204;49.980;8.358;2023-04-03T16:26:29;9.11;40.66
72277;SHT30;61204;49.980;8.358;2023-04-03T16:28:56;9.01;40.66
72277;SHT30;61204;49.980;8.358;2023-04-03T16:31:22;9.31;39.83
72277;SHT30;61204;49.980;8.358;2023-04-03T16:33:49;9.22;40.08
72277;SHT30;61204;49.980;8.358;2023-04-03T16:36:15;8.79;40.60
72277;SHT30;61204;49.980;8.358;2023-04-03T16:38:40;8.65;41.36
72277;SHT30;61204;49.980;8.358;2023-04-03T16:41:06;8.27;41.83
72277;SHT30;61204;49.980;8.358;2023-04-03T16:43:32;8.11;42.17
72277;SHT30;61204;49.980;8.358;2023-04-03T16:45:58;8.18;42.87
72277;SHT30;61204;49.980;8.358;2023-04-03T16:48:24;8.01;43.44
72277;SHT30;61204;49.980;8.358;2023-04-03T16:50:49;8.10;43.98
72277;SHT30;61204;49.980;8.358;2023-04-03T16:53:19;7.97;43.88
72277;SHT30;61204;49.980;8.358;2023-04-03T16:55:45;8.00;44.09
72277;SHT30;61204;49.980;8.358;2023-04-03T16:58:11;7.89;43.13
72277;SHT30;61204;49.980;8.358;2023-04-03T17:00:40;7.79;42.69
72277;SHT30;61204;49.980;8.358;2023-04-03T17:03:06;7.76;42.13
72277;SHT30;61204;49.980;8.358;2023-04-03T17:05:31;7.62;42.61
72277;SHT30;61204;49.980;8.358;2023-04-03T17:07:59;7.65;43.20
72277;SHT30;61204;49.980;8.358;2023-04-03T17:10:27;7.68;43.21
72277;SHT30;61204;49.980;8.358;2023-04-03T17:12:53;7.59;44.37
72277;SHT30;61204;49.980;8.358;2023-04-03T17:15:19;7.55;45.10
72277;SHT30;61204;49.980;8.358;2023-04-03T17:17:46;7.40;44.47
72277;SHT30;61204;49.980;8.358;2023-04-03T17:20:13;7.35;43.99
72277;SHT30;61204;49.980;8.358;2023-04-03T17:22:38;7.28;43.81
72277;SHT30;61204;49.980;8.358;2023-04-03T17:25:04;7.18;44.41
72277;SHT30;61204;49.980;8.358;2023-04-03T17:27:30;7.04;44.89
72277;SHT30;61204;49.980;8.358;2023-04-03T17:29:56;7.04;45.43
72277;SHT30;61204;49.980;8.358;2023-04-03T17:32:22;6.92;45.82
72277;SHT30;61204;49.980;8.358;2023-04-03T17:34:48;6.85;46.52
72277;SHT30;61204;49.980;8.358;2023-04-03T17:37:13;6.83;46.87
72277;SHT30;61204;49.980;8.358;2023-04-03T17:39:39;6.71;47.65
72277;SHT30;61204;49.980;8.358;2023-04-03T17:42:05;6.59;47.56
72277;SHT30;61204;49.980;8.358;2023-04-03T17:44:32;6.58;47.11
72277;SHT30;61204;49.980;8.358;2023-04-03T17:46:58;6.51;46.55
72277;SHT30;61204;49.980;8.358;2023-04-03T17:49:24;6.40;46.75
72277;SHT30;61204;49.980;8.358;2023-04-03T17:51:49;6.27;47.15
72277;SHT30;61204;49.980;8.358;2023-04-03T17:54:15;6.18;47.96
72277;SHT30;61204;49.980;8.358;2023-04-03T17:56:41;6.11;48.13
72277;SHT30;61204;49.980;8.358;2023-04-03T17:59:12;6.02;49.09